Santo Pipo, Argentina
Current Conditions -  °F | °C
As of 6:00 PM on Sunday 19 Oct 2014 (Local Time) from SGEN Reporting Station
Clear Clear  
Wind Chill: 28°   Ceiling: Unl
Heat Index: 29°   Visibility: 6mi
Dew Point: 17°   Wind: 3mph
Humidity: 51%   Direction: 130°SE
Pressure: 29.85"   Gusts: NA
Location:  27.13°S, 55.42°W
Report Text: SGEN 192100Z 13003KT CAVOK 28/17 Q1011
Loading
Personal Weather Stations






























Interactive Weather Map
Tropical Storm Tracking
New forecast layout! Learn more

10-Day Weather Forecast

Advertisements
Track Severe Weather on mobile